Time;durP1;ratioP1;P1;durP2;ratioP2;P2;SDS_P1;SDS_P2;PMS_P1;PMS_P2;Temp;Humidity;BMP_temperature;BMP_pressure;BME280_temperature;BME280_humidity;BME280_pressure;Samples;Min_cycle;Max_cycle;Signal;HPM_P1;HPM_P2
2021/05/09 00:03:06;;;;;;;11.82;6.80;;;18.40;93.00;;;;;;12063941;28;20047;-74
2021/05/09 00:08:53;;;;;;;12.18;7.05;;;18.30;92.70;;;;;;12061679;28;21009;-73
2021/05/09 00:14:41;;;;;;;12.20;6.22;;;18.30;93.00;;;;;;12060854;28;20056;-73
2021/05/09 00:20:27;;;;;;;9.45;5.97;;;18.30;93.20;;;;;;12058131;28;20045;-72
2021/05/09 00:26:14;;;;;;;10.77;5.68;;;18.20;93.30;;;;;;12058141;28;20144;-73
2021/05/09 00:32:01;;;;;;;10.10;5.38;;;18.30;93.20;;;;;;12060384;28;20055;-73
2021/05/09 00:37:47;;;;;;;11.27;5.75;;;18.20;93.60;;;;;;12058426;28;20044;-74
2021/05/09 00:43:33;;;;;;;8.82;5.22;;;18.20;93.70;;;;;;12054742;28;20048;-74
2021/05/09 00:49:20;;;;;;;10.30;5.28;;;18.10;93.60;;;;;;12060385;28;20514;-74
2021/05/09 00:55:09;;;;;;;9.57;4.97;;;18.10;93.90;;;;;;12063102;28;20063;-74
2021/05/09 01:00:56;;;;;;;11.20;5.32;;;18.10;94.20;;;;;;12070645;28;20067;-73
2021/05/09 01:06:45;;;;;;;7.25;4.18;;;18.20;94.30;;;;;;12055869;28;20060;-73
2021/05/09 01:12:31;;;;;;;10.13;5.00;;;18.20;94.60;;;;;;12059967;28;20044;-72
2021/05/09 01:18:18;;;;;;;7.85;4.72;;;18.20;93.90;;;;;;12018000;28;20055;-73
2021/05/09 01:24:06;;;;;;;10.63;5.20;;;18.10;94.10;;;;;;12010486;28;20049;-73
2021/05/09 01:29:52;;;;;;;11.35;5.50;;;18.10;94.30;;;;;;12047694;28;20051;-73
2021/05/09 01:35:38;;;;;;;7.03;4.40;;;18.10;94.50;;;;;;12015652;28;20053;-73
2021/05/09 07:15:11;;;;;;;13.88;4.25;;;17.60;99.90;;;;;;12148060;27;20384;-78
2021/05/09 07:21:00;;;;;;;9.60;4.43;;;18.40;99.90;;;;;;12090016;27;20292;-78
2021/05/09 07:26:47;;;;;;;9.90;4.10;;;19.10;99.90;;;;;;12065220;28;20060;-78
2021/05/09 07:32:34;;;;;;;7.22;3.97;;;19.50;99.90;;;;;;12082723;28;20135;-78
2021/05/09 07:47:33;;;;;;;8.32;5.22;;;19.50;99.90;;;;;;12059987;28;20353;-78
2021/05/09 07:53:19;;;;;;;10.02;4.50;;;19.50;99.90;;;;;;11999973;28;20049;-78
2021/05/09 07:59:06;;;;;;;4.97;4.10;;;20.00;99.90;;;;;;12008129;28;20049;-77
2021/05/09 08:04:54;;;;;;;11.27;4.43;;;20.40;99.90;;;;;;12008497;28;20049;-78
2021/05/09 08:10:42;;;;;;;8.02;3.88;;;20.40;99.90;;;;;;11998997;28;20041;-78
2021/05/09 08:16:29;;;;;;;5.78;3.70;;;20.20;99.90;;;;;;12002199;28;20064;-78
2021/05/09 08:22:16;;;;;;;6.05;3.53;;;20.40;99.90;;;;;;11998731;28;20052;-77
2021/05/09 08:28:02;;;;;;;12.05;4.35;;;20.50;99.90;;;;;;11993380;28;20131;-78
2021/05/09 08:33:49;;;;;;;8.30;4.05;;;20.50;99.90;;;;;;11998009;28;20076;-77
2021/05/09 08:39:38;;;;;;;7.07;3.67;;;20.60;99.90;;;;;;12021851;28;20108;-77
2021/05/09 08:45:24;;;;;;;4.40;3.25;;;20.70;99.90;;;;;;12055407;28;20073;-77
2021/05/09 08:51:13;;;;;;;7.00;3.25;;;20.70;99.90;;;;;;12045868;28;20631;-77
2021/05/09 08:57:02;;;;;;;8.13;3.15;;;21.00;99.90;;;;;;12019922;28;20378;-78
2021/05/09 09:02:49;;;;;;;7.50;2.97;;;21.00;99.90;;;;;;12001716;28;20504;-77
2021/05/09 09:08:50;;;;;;;4.30;3.13;;;21.10;99.90;;;;;;11998220;28;20064;-78
2021/05/09 09:14:52;;;;;;;4.95;3.50;;;21.20;99.90;;;;;;12006556;28;20411;-78
2021/05/09 09:20:38;;;;;;;6.95;3.80;;;21.50;99.90;;;;;;12011959;28;20071;-78
2021/05/09 09:26:30;;;;;;;4.20;3.30;;;21.80;99.90;;;;;;12012277;28;20044;-79
2021/05/09 09:32:18;;;;;;;8.13;4.13;;;22.00;99.90;;;;;;12006537;28;20053;-77
2021/05/09 09:38:26;;;;;;;7.63;3.50;;;21.90;99.90;;;;;;12000528;28;20056;-77
2021/05/09 09:44:15;;;;;;;7.80;3.75;;;21.80;99.90;;;;;;11999087;28;20056;-77
2021/05/09 09:50:02;;;;;;;4.95;3.47;;;21.90;99.90;;;;;;12002271;28;20064;-78
2021/05/09 09:56:00;;;;;;;7.00;3.50;;;22.10;99.90;;;;;;12006666;28;20056;-78
2021/05/09 10:01:46;;;;;;;6.70;3.35;;;22.20;99.90;;;;;;12001515;28;20113;-79
2021/05/09 10:07:34;;;;;;;5.80;3.17;;;22.20;99.90;;;;;;12003001;28;20056;-78
2021/05/09 10:13:21;;;;;;;4.78;3.08;;;22.40;99.70;;;;;;12012144;28;20568;-79
2021/05/09 10:19:13;;;;;;;6.25;2.92;;;22.50;99.00;;;;;;12031674;28;20479;-78
2021/05/09 10:25:01;;;;;;;6.35;2.85;;;22.90;98.50;;;;;;12006043;28;20044;-77
2021/05/09 10:30:55;;;;;;;6.22;2.85;;;23.20;97.60;;;;;;12023379;28;20471;-78
2021/05/09 10:36:41;;;;;;;4.35;3.10;;;23.30;95.40;;;;;;12003959;28;20040;-77
2021/05/09 10:42:29;;;;;;;8.88;5.07;;;23.30;94.70;;;;;;11999459;28;20053;-79
2021/05/09 10:48:26;;;;;;;11.20;4.70;;;23.50;94.90;;;;;;12000597;28;20804;-78
2021/05/09 10:54:23;;;;;;;5.68;3.33;;;23.70;92.80;;;;;;12000736;28;20057;-78
2021/05/09 11:00:12;;;;;;;4.18;3.28;;;23.70;92.20;;;;;;11997565;28;20052;-74
2021/05/09 11:06:05;;;;;;;6.88;3.25;;;23.90;90.30;;;;;;11988599;28;20064;-74
2021/05/09 11:11:57;;;;;;;5.22;3.20;;;23.80;89.20;;;;;;11997107;28;20038;-75
2021/05/09 11:17:44;;;;;;;9.10;3.20;;;23.90;87.60;;;;;;11986889;28;20049;-74
2021/05/09 11:23:39;;;;;;;5.40;3.22;;;23.90;83.70;;;;;;12000843;28;20385;-75
2021/05/09 11:29:26;;;;;;;7.53;3.30;;;24.10;86.30;;;;;;12001200;28;20056;-74
2021/05/09 11:35:15;;;;;;;6.80;3.30;;;24.20;85.80;;;;;;12002205;28;20085;-75
2021/05/09 11:41:01;;;;;;;10.05;3.00;;;24.20;85.00;;;;;;11993577;28;20095;-75
2021/05/09 11:46:48;;;;;;;7.70;3.45;;;24.40;83.30;;;;;;11994204;28;20064;-73
2021/05/09 11:52:37;;;;;;;4.32;2.53;;;24.70;82.00;;;;;;11992855;28;20545;-74
2021/05/09 11:58:26;;;;;;;6.50;3.50;;;24.90;78.70;;;;;;12000237;28;20085;-75
2021/05/09 12:04:15;;;;;;;4.28;3.17;;;25.30;78.80;;;;;;11993992;28;20059;-78
2021/05/09 12:10:06;;;;;;;7.60;2.95;;;25.40;74.80;;;;;;11996162;28;20064;-77
2021/05/09 12:15:52;;;;;;;4.85;2.75;;;25.50;73.10;;;;;;11995931;28;20052;-78
2021/05/09 12:21:39;;;;;;;7.70;3.28;;;25.50;70.90;;;;;;12003390;28;20508;-77
2021/05/09 12:27:28;;;;;;;9.60;3.95;;;25.70;70.50;;;;;;12005141;28;20500;-77
2021/05/09 12:33:26;;;;;;;5.38;2.83;;;25.40;70.70;;;;;;11994227;28;20124;-78
2021/05/09 12:39:19;;;;;;;8.43;3.08;;;25.30;70.20;;;;;;12015290;28;20429;-78
2021/05/09 12:45:09;;;;;;;8.27;2.28;;;25.30;70.00;;;;;;12002812;28;20071;-77
2021/05/09 12:50:58;;;;;;;4.07;2.50;;;25.60;68.80;;;;;;12011271;28;20049;-78
2021/05/09 12:56:44;;;;;;;7.45;2.83;;;25.80;67.50;;;;;;12009422;28;20048;-78
2021/05/09 13:02:46;;;;;;;4.75;2.47;;;26.10;68.30;;;;;;12007276;28;20072;-79
2021/05/09 13:08:32;;;;;;;6.15;2.40;;;26.60;67.30;;;;;;12003756;28;20049;-78
2021/05/09 13:14:19;;;;;;;6.47;2.90;;;26.80;66.20;;;;;;12006231;28;20072;-77
2021/05/09 13:20:07;;;;;;;11.18;2.58;;;27.10;62.90;;;;;;12002114;28;20103;-77
2021/05/09 13:25:54;;;;;;;5.32;2.58;;;27.00;62.40;;;;;;12012491;28;20049;-78
2021/05/09 13:31:41;;;;;;;4.95;2.35;;;27.00;63.80;;;;;;12013619;28;20040;-78
2021/05/09 13:37:28;;;;;;;4.47;1.88;;;27.10;63.70;;;;;;12014210;28;20041;-77
2021/05/09 13:43:14;;;;;;;5.43;2.33;;;27.00;60.80;;;;;;12005312;28;20067;-77
2021/05/09 13:49:01;;;;;;;5.38;2.53;;;27.20;60.40;;;;;;12007674;28;20087;-77
2021/05/09 13:54:48;;;;;;;3.78;2.00;;;27.10;57.80;;;;;;12013912;28;20051;-78
2021/05/09 14:00:35;;;;;;;5.85;2.30;;;27.10;56.80;;;;;;12025030;28;20543;-78
2021/05/09 14:06:21;;;;;;;9.27;2.45;;;27.10;56.00;;;;;;12016994;28;20060;-78
2021/05/09 14:12:11;;;;;;;5.78;2.05;;;27.10;56.50;;;;;;12002383;28;20061;-79
2021/05/09 14:18:01;;;;;;;4.05;2.20;;;27.10;56.90;;;;;;11997520;28;20068;-78
2021/05/09 14:23:47;;;;;;;4.82;2.30;;;27.10;57.60;;;;;;11998478;28;20049;-78
2021/05/09 14:29:34;;;;;;;7.95;2.20;;;27.40;55.90;;;;;;12012227;28;20045;-80
2021/05/09 14:35:21;;;;;;;6.63;2.08;;;27.40;56.30;;;;;;12018281;28;20054;-79
2021/05/09 14:41:08;;;;;;;4.85;2.22;;;27.40;55.30;;;;;;11993521;28;20462;-79
2021/05/09 14:46:56;;;;;;;6.60;2.45;;;27.30;55.20;;;;;;12004964;28;20547;-79
2021/05/09 14:52:43;;;;;;;8.30;2.30;;;27.50;56.50;;;;;;12013430;28;20114;-78
2021/05/09 14:58:29;;;;;;;7.60;1.90;;;27.00;56.40;;;;;;12001826;28;20052;-77
2021/05/09 15:04:16;;;;;;;6.65;2.00;;;26.80;57.20;;;;;;11994916;28;20055;-78
2021/05/09 15:10:04;;;;;;;9.05;2.58;;;27.00;57.80;;;;;;11997918;28;20530;-78
2021/05/09 15:15:51;;;;;;;5.28;2.10;;;26.50;58.00;;;;;;11995896;28;20441;-78
2021/05/09 15:21:38;;;;;;;4.93;2.75;;;26.20;58.70;;;;;;11993269;28;20052;-78
2021/05/09 15:27:25;;;;;;;16.20;2.10;;;25.80;59.40;;;;;;11997385;28;20045;-78
2021/05/09 15:33:11;;;;;;;8.38;2.45;;;25.50;60.00;;;;;;11993326;28;20136;-74
2021/05/09 15:38:58;;;;;;;9.23;2.45;;;24.70;63.80;;;;;;11991962;28;20593;-73
2021/05/09 15:44:46;;;;;;;8.55;2.10;;;24.80;64.30;;;;;;12001124;28;23742;-74
2021/05/09 15:50:33;;;;;;;10.13;2.65;;;24.70;65.20;;;;;;11993765;28;20045;-75
2021/05/09 15:56:20;;;;;;;11.65;2.35;;;24.70;64.20;;;;;;11997154;28;20487;-74
2021/05/09 16:02:07;;;;;;;8.00;2.10;;;24.90;64.10;;;;;;11997840;28;20539;-74
2021/05/09 16:07:54;;;;;;;6.70;2.50;;;24.90;64.20;;;;;;12006031;28;20413;-74
2021/05/09 16:13:41;;;;;;;5.15;2.25;;;24.70;66.10;;;;;;12006086;28;20106;-74
2021/05/09 16:19:28;;;;;;;6.38;2.38;;;24.10;70.70;;;;;;12003098;28;20525;-73
2021/05/09 16:25:14;;;;;;;4.75;2.58;;;23.80;74.20;;;;;;12001711;28;20098;-74
2021/05/09 16:31:02;;;;;;;8.43;2.60;;;24.20;75.50;;;;;;12007569;28;20052;-74
2021/05/09 16:36:48;;;;;;;9.38;2.60;;;24.70;75.80;;;;;;12006954;28;20086;-78
2021/05/09 16:42:34;;;;;;;9.88;2.65;;;24.80;76.70;;;;;;11997906;28;20049;-78
2021/05/09 16:48:22;;;;;;;7.63;3.00;;;24.70;77.70;;;;;;12015334;28;20048;-78
2021/05/09 16:54:18;;;;;;;6.82;2.50;;;24.60;78.70;;;;;;12000125;28;20373;-78
2021/05/09 17:00:07;;;;;;;10.25;2.70;;;24.50;79.00;;;;;;12006547;28;20045;-78
2021/05/09 17:05:54;;;;;;;5.88;2.30;;;24.00;73.80;;;;;;11999604;28;20057;-78
2021/05/09 17:11:41;;;;;;;4.80;2.30;;;23.90;71.60;;;;;;12002031;28;20049;-78
2021/05/09 17:17:27;;;;;;;9.43;2.05;;;23.90;71.40;;;;;;12006456;28;20454;-77
2021/05/09 17:23:15;;;;;;;8.05;1.88;;;24.00;70.20;;;;;;12009128;28;20511;-77
2021/05/09 17:29:02;;;;;;;7.03;1.85;;;23.90;68.50;;;;;;12005810;28;20129;-79
2021/05/09 17:34:48;;;;;;;7.05;1.60;;;23.70;68.70;;;;;;12013282;28;20042;-79
2021/05/09 17:40:37;;;;;;;4.15;1.63;;;23.40;69.80;;;;;;11998813;28;20555;-78
2021/05/09 17:46:23;;;;;;;6.13;1.60;;;23.40;69.90;;;;;;12006864;28;20423;-77
2021/05/09 17:52:10;;;;;;;10.45;2.35;;;23.40;70.40;;;;;;11997346;28;20508;-77
2021/05/09 17:57:57;;;;;;;3.67;1.20;;;23.60;70.00;;;;;;12003276;28;20055;-78
2021/05/09 18:03:44;;;;;;;6.82;1.38;;;23.50;69.30;;;;;;12007709;28;20054;-78
2021/05/09 18:09:32;;;;;;;10.48;1.50;;;23.60;69.60;;;;;;12011591;28;20128;-78
2021/05/09 18:15:22;;;;;;;3.50;1.55;;;23.40;70.70;;;;;;12003942;28;20045;-79
2021/05/09 18:27:04;;;;;;;4.95;1.48;;;23.30;71.60;;;;;;12000494;28;20053;-79
2021/05/09 18:32:51;;;;;;;7.95;2.00;;;23.30;72.00;;;;;;12008209;28;20041;-78
2021/05/09 18:38:37;;;;;;;5.13;1.83;;;23.20;72.50;;;;;;12002999;28;20528;-78
2021/05/09 18:44:23;;;;;;;7.80;2.70;;;23.30;72.70;;;;;;11998517;28;20061;-79
2021/05/09 18:50:11;;;;;;;6.68;2.22;;;23.20;72.50;;;;;;12001221;28;20049;-78
2021/05/09 18:55:58;;;;;;;5.65;2.00;;;23.10;72.30;;;;;;12008115;28;20069;-79
2021/05/09 19:01:45;;;;;;;5.05;1.88;;;23.00;73.00;;;;;;11999435;28;20049;-78
2021/05/09 19:07:32;;;;;;;3.38;1.80;;;22.90;73.20;;;;;;12012306;28;20049;-79
2021/05/09 19:13:19;;;;;;;9.52;4.63;;;22.90;73.60;;;;;;12051712;28;20051;-78
2021/05/09 19:19:05;;;;;;;4.72;1.90;;;22.90;74.20;;;;;;12024264;28;20128;-79
2021/05/09 19:24:52;;;;;;;4.68;1.85;;;22.90;74.40;;;;;;12010012;28;20526;-79
2021/05/09 19:30:39;;;;;;;6.28;1.83;;;22.90;74.80;;;;;;12002939;28;20543;-78
2021/05/09 19:36:26;;;;;;;7.75;2.10;;;22.90;75.20;;;;;;11994128;28;20352;-77
2021/05/09 19:42:21;;;;;;;6.45;1.95;;;23.00;77.10;;;;;;11987673;28;20068;-78
2021/05/09 19:48:07;;;;;;;5.35;2.17;;;22.90;77.40;;;;;;12019362;28;20054;-78
2021/05/09 19:53:54;;;;;;;6.72;2.10;;;22.90;80.20;;;;;;12024121;28;20055;-78
2021/05/09 19:59:41;;;;;;;3.05;1.80;;;22.80;83.10;;;;;;11996654;28;20057;-78
2021/05/09 20:05:27;;;;;;;4.68;1.90;;;22.70;85.50;;;;;;11992799;28;20045;-78
2021/05/09 20:11:16;;;;;;;6.97;2.30;;;22.70;85.70;;;;;;11993285;28;20401;-78
2021/05/09 20:17:03;;;;;;;7.30;2.20;;;22.60;86.40;;;;;;11997040;28;20061;-77
2021/05/09 20:22:50;;;;;;;3.85;2.40;;;22.60;87.30;;;;;;12000718;28;20095;-79
2021/05/09 20:28:36;;;;;;;3.75;2.25;;;22.50;86.80;;;;;;11995772;28;20045;-78
2021/05/09 20:34:24;;;;;;;7.25;2.22;;;22.50;87.50;;;;;;12004135;28;20110;-79
2021/05/09 20:40:10;;;;;;;4.47;2.75;;;22.40;88.80;;;;;;11997813;28;20056;-79
2021/05/09 20:45:57;;;;;;;10.10;3.40;;;22.30;89.20;;;;;;11998623;28;20056;-79
2021/05/09 20:51:44;;;;;;;6.03;2.40;;;22.30;88.90;;;;;;12000895;28;23408;-79
2021/05/09 20:57:31;;;;;;;7.97;2.95;;;22.40;89.40;;;;;;12009139;28;20045;-79
2021/05/09 21:03:17;;;;;;;8.35;2.90;;;22.40;90.10;;;;;;12001788;28;20100;-78
2021/05/09 21:09:04;;;;;;;8.23;2.50;;;22.40;90.80;;;;;;12007297;28;20053;-78
2021/05/09 21:14:50;;;;;;;5.85;2.40;;;22.40;90.70;;;;;;12010259;28;20837;-78
2021/05/09 21:20:37;;;;;;;7.72;2.58;;;22.30;90.90;;;;;;12002417;28;20045;-79
2021/05/09 21:26:24;;;;;;;6.70;2.58;;;22.30;91.20;;;;;;12006205;28;20481;-78
2021/05/09 21:32:10;;;;;;;5.68;2.45;;;22.10;91.40;;;;;;11999727;28;20049;-77
2021/05/09 21:37:58;;;;;;;8.75;3.22;;;22.10;91.80;;;;;;12005107;28;20403;-78
2021/05/09 21:43:46;;;;;;;6.55;3.13;;;22.10;92.00;;;;;;12007853;28;20045;-78
2021/05/09 21:49:32;;;;;;;6.07;2.60;;;22.10;91.70;;;;;;12003399;28;20049;-78
2021/05/09 21:55:18;;;;;;;5.13;2.42;;;22.20;91.60;;;;;;12021000;28;20064;-79
2021/05/09 22:01:06;;;;;;;12.85;3.15;;;22.20;91.90;;;;;;12003798;28;20053;-78
2021/05/09 22:06:52;;;;;;;6.97;2.65;;;22.20;92.10;;;;;;12013315;28;20037;-78
2021/05/09 22:12:39;;;;;;;5.28;2.90;;;22.00;92.20;;;;;;12007814;28;20041;-77
2021/05/09 22:18:27;;;;;;;7.18;3.03;;;22.10;92.70;;;;;;12004435;28;20045;-77
2021/05/09 22:24:15;;;;;;;4.18;2.30;;;22.00;92.90;;;;;;11994409;28;20048;-79
2021/05/09 22:30:02;;;;;;;4.72;2.28;;;21.90;93.10;;;;;;11995610;28;20049;-78
2021/05/09 22:35:49;;;;;;;6.35;2.10;;;21.70;91.90;;;;;;12006498;28;20064;-78
2021/05/09 22:41:36;;;;;;;4.60;2.40;;;21.60;92.40;;;;;;11996459;28;20056;-78
2021/05/09 22:47:24;;;;;;;5.43;2.60;;;21.50;92.70;;;;;;12009159;28;20061;-78
2021/05/09 22:53:11;;;;;;;5.68;3.08;;;21.00;93.40;;;;;;11997823;28;20063;-78
2021/05/09 22:58:58;;;;;;;4.10;2.20;;;20.80;95.70;;;;;;12009398;28;20057;-77
2021/05/09 23:04:44;;;;;;;8.70;2.65;;;20.70;99.30;;;;;;12009239;28;20049;-77
